Time;durP1;ratioP1;P1;durP2;ratioP2;P2;SDS_P1;SDS_P2;PMS_P1;PMS_P2;Temp;Humidity;BMP_temperature;BMP_pressure;BME280_temperature;BME280_humidity;BME280_pressure;Samples;Min_cycle;Max_cycle;Signal;HPM_P1;HPM_P2
2020/12/13 00:01:05;;;;;;;242.23;32.05;;;7.80;96.70;;;;;;5029826;28;20041;-87
2020/12/13 00:03:30;;;;;;;312.58;36.90;;;7.70;96.70;;;;;;5034049;28;20124;-87
2020/12/13 00:05:56;;;;;;;306.27;33.65;;;7.80;96.80;;;;;;5036057;28;20087;-87
2020/12/13 00:08:22;;;;;;;536.80;45.13;;;7.70;96.70;;;;;;5018290;28;20033;-87
2020/12/13 00:10:49;;;;;;;315.88;33.92;;;7.70;96.80;;;;;;5028463;28;20018;-87
2020/12/13 00:13:14;;;;;;;326.73;40.83;;;7.70;96.80;;;;;;5032641;28;20029;-87
2020/12/13 00:15:40;;;;;;;325.58;37.20;;;7.70;96.80;;;;;;5030008;28;20489;-87
2020/12/13 00:18:05;;;;;;;323.63;34.10;;;7.70;96.80;;;;;;5034867;28;20044;-87
2020/12/13 00:20:31;;;;;;;299.30;37.10;;;7.70;96.80;;;;;;5035179;28;20036;-88
2020/12/13 00:22:56;;;;;;;416.67;38.67;;;7.70;96.80;;;;;;5028946;28;20025;-87
2020/12/13 00:25:22;;;;;;;369.23;34.92;;;7.70;96.80;;;;;;5035295;28;20034;-87
2020/12/13 00:27:47;;;;;;;244.30;30.55;;;7.70;96.80;;;;;;5036193;28;20088;-87
2020/12/13 00:30:13;;;;;;;242.98;32.55;;;7.70;96.90;;;;;;5024465;28;20022;-88
2020/12/13 00:32:38;;;;;;;382.15;38.20;;;7.70;96.90;;;;;;5029935;28;20033;-88
2020/12/13 00:35:04;;;;;;;249.38;35.45;;;7.70;96.90;;;;;;5028187;28;20021;-88
2020/12/13 00:37:29;;;;;;;344.30;33.28;;;7.70;96.90;;;;;;5032575;28;20043;-89
2020/12/13 00:39:55;;;;;;;307.10;34.35;;;7.70;96.90;;;;;;5031249;28;20451;-89
2020/12/13 00:42:21;;;;;;;196.82;30.33;;;7.60;96.90;;;;;;5032799;28;20029;-88
2020/12/13 00:44:46;;;;;;;170.38;30.80;;;7.60;96.90;;;;;;5033483;28;20041;-89
2020/12/13 00:47:13;;;;;;;218.95;31.55;;;7.70;97.00;;;;;;5020434;28;20045;-89
2020/12/13 00:49:38;;;;;;;485.00;42.38;;;7.70;97.00;;;;;;5029189;28;20425;-89
2020/12/13 00:52:05;;;;;;;197.95;31.20;;;7.70;97.00;;;;;;5044970;28;20026;-88
2020/12/13 00:54:31;;;;;;;250.10;34.05;;;7.80;97.00;;;;;;5030177;28;20018;-89
2020/12/13 00:56:56;;;;;;;360.08;38.28;;;7.70;97.00;;;;;;5017948;28;20100;-89
2020/12/13 00:59:22;;;;;;;562.22;45.45;;;7.80;97.00;;;;;;5030425;28;20038;-89
2020/12/13 01:01:48;;;;;;;161.85;31.35;;;7.80;97.00;;;;;;5030962;28;20025;-89
2020/12/13 01:04:14;;;;;;;396.17;39.58;;;7.80;97.00;;;;;;5032938;28;20036;-89
2020/12/13 01:06:39;;;;;;;337.80;36.15;;;7.80;97.00;;;;;;5034115;28;20030;-89
2020/12/13 01:09:05;;;;;;;325.02;36.40;;;7.80;97.00;;;;;;5029817;28;20029;-88
2020/12/13 01:11:33;;;;;;;287.05;34.67;;;7.80;97.00;;;;;;5025296;28;20029;-87
2020/12/13 01:14:00;;;;;;;279.83;35.65;;;7.80;97.00;;;;;;5019651;28;20025;-89
2020/12/13 01:16:26;;;;;;;292.45;33.65;;;7.80;97.00;;;;;;5033797;28;20060;-89
2020/12/13 01:18:53;;;;;;;352.35;35.05;;;7.80;97.00;;;;;;5030054;28;20041;-89
2020/12/13 01:21:20;;;;;;;537.28;40.15;;;7.80;97.00;;;;;;5033941;28;20079;-89
2020/12/13 01:23:46;;;;;;;384.83;36.72;;;7.80;97.00;;;;;;5022160;28;20029;-89
2020/12/13 01:26:17;;;;;;;163.23;33.00;;;7.80;97.10;;;;;;5031294;28;20096;-89
2020/12/13 01:28:43;;;;;;;303.15;34.72;;;7.90;97.00;;;;;;5042846;28;20032;-89
2020/12/13 01:31:12;;;;;;;225.50;31.83;;;7.90;97.00;;;;;;5024980;28;20109;-89
2020/12/13 01:33:38;;;;;;;148.85;29.63;;;7.90;97.10;;;;;;5026124;28;20068;-89
2020/12/13 01:36:03;;;;;;;207.93;33.55;;;7.90;97.10;;;;;;5032694;28;20490;-89
2020/12/13 01:38:29;;;;;;;201.13;33.90;;;7.90;97.10;;;;;;5030608;28;20129;-90
2020/12/13 01:40:59;;;;;;;235.48;31.90;;;7.90;97.10;;;;;;5013854;28;20030;-87
2020/12/13 01:43:26;;;;;;;207.95;32.67;;;7.90;97.10;;;;;;5029259;28;20502;-88
2020/12/13 01:45:52;;;;;;;164.05;30.17;;;7.90;97.00;;;;;;5033563;28;20025;-88
2020/12/13 01:48:18;;;;;;;136.80;30.85;;;7.90;97.00;;;;;;5025087;28;20109;-88
2020/12/13 01:50:52;;;;;;;113.97;28.35;;;8.00;97.00;;;;;;5026698;28;20021;-87
2020/12/13 01:53:24;;;;;;;109.28;28.15;;;7.90;97.00;;;;;;5023881;28;20028;-88
2020/12/13 01:55:51;;;;;;;140.65;29.50;;;7.90;97.00;;;;;;5026701;28;20116;-88
2020/12/13 01:58:20;;;;;;;116.57;28.52;;;7.90;97.00;;;;;;5023332;28;20168;-88
2020/12/13 02:00:50;;;;;;;128.68;28.25;;;7.90;97.00;;;;;;5033315;28;20036;-88
2020/12/13 02:03:20;;;;;;;194.75;31.48;;;8.00;97.00;;;;;;5028584;28;20104;-88
2020/12/13 02:05:50;;;;;;;120.22;31.73;;;8.00;97.00;;;;;;5032220;28;20037;-88
2020/12/13 02:08:21;;;;;;;109.95;31.05;;;8.00;96.90;;;;;;5029589;28;20029;-88
2020/12/13 02:10:47;;;;;;;113.80;33.22;;;8.00;96.90;;;;;;5027328;28;20021;-88
2020/12/13 02:13:12;;;;;;;106.25;33.17;;;8.00;97.00;;;;;;5021070;28;20385;-87
2020/12/13 02:15:38;;;;;;;111.63;36.58;;;8.00;96.90;;;;;;5021321;28;20053;-88
2020/12/13 02:18:03;;;;;;;117.13;35.47;;;8.10;96.90;;;;;;5033672;28;20080;-88
2020/12/13 02:20:29;;;;;;;112.82;36.38;;;8.00;96.90;;;;;;5023066;28;20036;-88
2020/12/13 02:22:54;;;;;;;119.78;38.83;;;8.10;96.90;;;;;;5022012;28;20363;-88
2020/12/13 02:25:22;;;;;;;114.50;36.08;;;8.10;96.90;;;;;;5026211;28;20033;-88
2020/12/13 02:27:48;;;;;;;116.22;37.10;;;8.10;96.90;;;;;;5016915;28;20033;-88
2020/12/13 02:30:14;;;;;;;119.82;37.83;;;8.10;96.90;;;;;;5029527;28;20022;-87
2020/12/13 02:32:39;;;;;;;123.93;40.45;;;8.10;96.90;;;;;;5029477;28;20025;-88
2020/12/13 02:35:06;;;;;;;107.13;34.15;;;8.10;96.80;;;;;;5025638;28;20078;-88
2020/12/13 02:37:32;;;;;;;106.18;35.25;;;8.20;96.80;;;;;;5026148;28;20030;-88
2020/12/13 02:39:58;;;;;;;110.28;36.30;;;8.20;97.10;;;;;;5028407;28;20034;-88
2020/12/13 02:42:23;;;;;;;109.38;36.75;;;8.10;96.80;;;;;;5026345;28;20162;-88
2020/12/13 02:44:49;;;;;;;116.38;38.67;;;8.10;96.80;;;;;;5022119;28;20505;-87
2020/12/13 02:47:15;;;;;;;114.50;38.17;;;8.10;96.80;;;;;;5032395;28;20029;-87
2020/12/13 02:49:41;;;;;;;97.95;36.28;;;8.10;96.70;;;;;;5029711;28;20091;-88
2020/12/13 02:52:08;;;;;;;112.43;36.90;;;8.10;96.70;;;;;;5034018;28;20029;-88
2020/12/13 02:54:34;;;;;;;98.45;34.50;;;8.10;96.70;;;;;;5014292;28;20022;-88
2020/12/13 02:56:59;;;;;;;100.40;36.17;;;8.10;96.70;;;;;;5017159;28;20036;-88
2020/12/13 02:59:25;;;;;;;102.22;36.28;;;8.10;96.80;;;;;;5030909;28;20033;-88
2020/12/13 03:01:50;;;;;;;99.43;35.47;;;8.10;96.80;;;;;;5030415;28;20424;-88
2020/12/13 03:04:16;;;;;;;97.07;35.58;;;8.00;96.70;;;;;;5026582;28;20116;-88
2020/12/13 03:06:41;;;;;;;96.68;34.70;;;8.00;96.70;;;;;;5027542;28;20041;-88
2020/12/13 03:09:07;;;;;;;108.55;37.20;;;8.00;96.80;;;;;;5023451;28;20083;-88
2020/12/13 03:11:32;;;;;;;110.82;37.35;;;8.00;96.80;;;;;;5022449;28;20490;-88
2020/12/13 03:13:58;;;;;;;97.20;35.70;;;8.00;96.80;;;;;;5025271;28;20040;-88
2020/12/13 03:16:23;;;;;;;91.32;33.42;;;8.00;96.80;;;;;;5026458;28;20028;-88
2020/12/13 03:18:48;;;;;;;91.15;34.60;;;8.00;96.80;;;;;;5030487;28;20083;-87
2020/12/13 03:21:14;;;;;;;89.07;32.60;;;8.00;96.80;;;;;;5021455;28;20102;-87
2020/12/13 03:23:39;;;;;;;93.38;33.42;;;8.00;96.80;;;;;;5035318;28;20057;-87
2020/12/13 03:26:05;;;;;;;99.63;35.35;;;8.00;96.80;;;;;;5026635;28;20072;-88
2020/12/13 03:28:31;;;;;;;92.68;33.80;;;8.00;96.80;;;;;;5024363;28;20021;-87
2020/12/13 03:30:56;;;;;;;84.90;32.42;;;8.00;96.80;;;;;;5033952;28;20107;-88
2020/12/13 03:33:22;;;;;;;89.47;33.83;;;8.00;96.80;;;;;;5031699;28;20432;-87
2020/12/13 03:35:47;;;;;;;85.32;33.30;;;8.00;96.80;;;;;;5029486;28;20021;-88
2020/12/13 03:38:13;;;;;;;81.38;32.30;;;8.00;96.80;;;;;;5035890;28;20032;-87
2020/12/13 03:40:38;;;;;;;87.82;32.78;;;8.00;96.80;;;;;;5030854;28;20025;-88
2020/12/13 03:43:04;;;;;;;96.03;33.38;;;8.00;96.80;;;;;;5026940;28;20073;-88
2020/12/13 03:45:30;;;;;;;88.45;31.60;;;8.00;96.80;;;;;;5035380;28;20030;-88
2020/12/13 03:47:55;;;;;;;83.65;32.85;;;8.00;96.80;;;;;;5028433;28;20032;-87
2020/12/13 03:50:21;;;;;;;87.32;33.63;;;8.10;96.80;;;;;;5035535;28;20025;-88
2020/12/13 03:52:46;;;;;;;75.68;29.45;;;8.10;97.10;;;;;;5034270;28;20492;-88
2020/12/13 03:55:12;;;;;;;86.70;31.45;;;8.10;96.80;;;;;;5032671;28;20421;-87
2020/12/13 03:57:37;;;;;;;76.82;30.58;;;8.10;96.80;;;;;;5020335;28;20878;-88
2020/12/13 04:00:05;;;;;;;72.68;28.88;;;8.10;96.80;;;;;;5029217;28;20093;-88
2020/12/13 04:02:30;;;;;;;83.40;31.55;;;8.20;96.80;;;;;;5031532;28;20101;-88
2020/12/13 04:04:56;;;;;;;76.05;30.80;;;8.20;96.80;;;;;;5029115;28;20112;-87
2020/12/13 04:07:21;;;;;;;79.65;30.90;;;8.20;96.80;;;;;;5034751;28;20040;-88
2020/12/13 04:09:47;;;;;;;72.88;29.40;;;8.20;96.80;;;;;;5023167;28;20026;-88
2020/12/13 04:12:12;;;;;;;77.65;29.35;;;8.20;96.80;;;;;;5022215;28;20022;-88
2020/12/13 04:14:38;;;;;;;69.22;27.77;;;8.30;96.80;;;;;;5023854;28;20030;-88
2020/12/13 04:17:03;;;;;;;74.13;27.92;;;8.30;96.80;;;;;;5034947;28;20056;-88
2020/12/13 04:19:31;;;;;;;80.50;29.70;;;8.20;96.70;;;;;;5020370;28;20516;-88
2020/12/13 04:21:57;;;;;;;74.50;29.80;;;8.30;96.70;;;;;;5022060;28;20021;-88
2020/12/13 04:24:23;;;;;;;76.40;31.60;;;8.30;96.70;;;;;;5019204;28;20029;-87
2020/12/13 04:26:48;;;;;;;71.55;27.73;;;8.30;96.70;;;;;;5032213;28;20026;-88
2020/12/13 04:29:14;;;;;;;70.28;28.60;;;8.30;96.70;;;;;;5032451;28;20048;-88
2020/12/13 04:31:39;;;;;;;67.85;29.00;;;8.30;96.70;;;;;;5033271;28;20025;-88
2020/12/13 04:34:05;;;;;;;64.25;29.17;;;8.30;96.70;;;;;;5029827;28;20470;-87
2020/12/13 04:36:30;;;;;;;82.05;32.30;;;8.30;97.00;;;;;;5023027;28;20022;-88
2020/12/13 04:38:56;;;;;;;63.45;27.73;;;8.30;96.70;;;;;;5028444;28;20038;-88
2020/12/13 04:41:21;;;;;;;66.85;26.65;;;8.30;96.70;;;;;;5034849;28;20363;-88
2020/12/13 04:43:47;;;;;;;67.95;27.35;;;8.30;96.70;;;;;;5031825;28;20053;-88
2020/12/13 04:46:13;;;;;;;65.07;28.95;;;8.30;96.70;;;;;;5027604;28;20053;-89
2020/12/13 04:48:39;;;;;;;62.85;28.10;;;8.30;96.70;;;;;;5021919;28;20021;-89
2020/12/13 04:51:05;;;;;;;64.25;26.95;;;8.40;96.70;;;;;;5031627;28;20117;-88
2020/12/13 04:53:32;;;;;;;61.50;27.65;;;8.30;96.90;;;;;;5026098;28;20063;-89
2020/12/13 04:55:59;;;;;;;63.25;27.55;;;8.40;96.70;;;;;;5034167;28;20029;-88
2020/12/13 04:58:27;;;;;;;65.45;27.02;;;8.40;96.60;;;;;;5031690;28;20053;-87
2020/12/13 05:01:03;;;;;;;55.03;25.30;;;8.30;96.60;;;;;;5029249;28;20091;-87
2020/12/13 05:03:30;;;;;;;60.88;26.90;;;8.40;96.60;;;;;;5033715;28;20018;-88
2020/12/13 05:06:01;;;;;;;56.60;26.33;;;8.30;96.60;;;;;;5033273;28;20041;-87
2020/12/13 05:08:30;;;;;;;53.67;25.65;;;8.30;96.60;;;;;;5030808;28;20025;-88
2020/12/13 05:10:57;;;;;;;54.28;24.92;;;8.30;96.60;;;;;;5029036;28;20037;-88
2020/12/13 05:13:22;;;;;;;62.88;29.70;;;8.30;96.70;;;;;;5032973;28;20025;-88
2020/12/13 05:15:48;;;;;;;60.53;27.40;;;8.40;96.70;;;;;;5025509;28;20458;-88
2020/12/13 05:18:14;;;;;;;55.20;24.73;;;8.40;96.60;;;;;;5030636;28;20045;-88
2020/12/13 05:20:39;;;;;;;56.30;26.55;;;8.40;96.60;;;;;;5030045;28;20022;-88
2020/12/13 05:23:06;;;;;;;50.67;23.15;;;8.40;96.60;;;;;;5022927;28;20048;-88
2020/12/13 05:25:33;;;;;;;62.47;26.23;;;8.40;96.60;;;;;;5018363;28;20022;-88
2020/12/13 05:28:01;;;;;;;46.90;23.38;;;8.40;96.60;;;;;;5034186;28;20493;-88
2020/12/13 05:30:32;;;;;;;56.15;26.92;;;8.40;96.60;;;;;;5034014;28;20093;-88
2020/12/13 05:33:03;;;;;;;53.30;25.52;;;8.40;96.60;;;;;;5032967;28;20093;-87
2020/12/13 05:35:28;;;;;;;54.15;27.35;;;8.40;96.60;;;;;;5016185;28;20053;-87
2020/12/13 05:37:54;;;;;;;51.72;25.60;;;8.40;96.60;;;;;;5016626;28;20060;-87
2020/12/13 05:40:21;;;;;;;49.80;23.52;;;8.30;96.50;;;;;;5032717;28;20029;-87
2020/12/13 05:42:54;;;;;;;56.40;25.67;;;8.40;96.50;;;;;;5033138;28;20035;-86
2020/12/13 05:45:31;;;;;;;54.20;25.45;;;8.30;96.50;;;;;;5029789;28;20065;-87
2020/12/13 05:53:14;;;;;;;52.53;24.85;;;8.30;96.50;;;;;;5015604;28;20033;-88
2020/12/13 05:55:40;;;;;;;57.45;26.45;;;8.30;96.50;;;;;;5028538;28;20049;-88
2020/12/13 05:58:06;;;;;;;47.38;24.42;;;8.30;96.50;;;;;;5028741;28;20473;-87
2020/12/13 06:00:33;;;;;;;60.70;26.33;;;8.30;96.50;;;;;;5026853;28;20105;-87
2020/12/13 06:03:00;;;;;;;47.08;23.10;;;8.30;96.50;;;;;;5030797;28;20398;-87
2020/12/13 06:05:27;;;;;;;44.80;23.50;;;8.30;96.50;;;;;;5027240;28;20474;-87
2020/12/13 06:07:57;;;;;;;48.65;24.52;;;8.40;96.50;;;;;;5031493;28;20025;-88
2020/12/13 06:10:25;;;;;;;52.20;25.27;;;8.40;96.50;;;;;;5023291;28;20025;-87
2020/12/13 06:13:08;;;;;;;52.40;24.23;;;8.30;96.50;;;;;;5018156;28;20017;-88
2020/12/13 06:15:34;;;;;;;;;;;8.30;96.50;;;;;;5032601;28;20153;-88
2020/12/13 06:18:02;;;;;;;44.30;22.83;;;8.30;96.40;;;;;;5022363;28;19909;-88
2020/12/13 06:20:30;;;;;;;45.33;22.63;;;8.30;96.50;;;;;;5029841;28;20036;-87
2020/12/13 06:22:58;;;;;;;52.80;24.10;;;8.30;96.50;;;;;;5033129;28;20041;-87
2020/12/13 06:25:23;;;;;;;52.00;23.40;;;8.30;96.40;;;;;;5032290;28;20041;-87
2020/12/13 06:27:50;;;;;;;46.33;24.00;;;8.30;96.40;;;;;;5030834;28;20033;-87
2020/12/13 06:30:18;;;;;;;48.97;24.33;;;8.30;96.40;;;;;;5028779;28;20048;-87
2020/12/13 06:32:46;;;;;;;48.25;22.83;;;8.30;96.50;;;;;;5024492;28;20025;-87
2020/12/13 06:35:15;;;;;;;46.28;22.73;;;8.30;96.40;;;;;;5025593;28;20391;-90
2020/12/13 06:37:41;;;;;;;54.00;24.25;;;8.30;96.40;;;;;;5032973;28;20075;-87
2020/12/13 06:40:11;;;;;;;43.25;21.17;;;8.30;96.40;;;;;;5032817;28;20399;-88
2020/12/13 06:42:40;;;;;;;47.38;21.90;;;8.30;96.40;;;;;;5026530;28;20137;-88
2020/12/13 06:45:11;;;;;;;49.85;23.38;;;8.30;96.50;;;;;;5028633;28;20508;-88
2020/12/13 06:47:39;;;;;;;44.92;22.55;;;8.30;96.50;;;;;;5030152;28;20417;-88
2020/12/13 06:50:09;;;;;;;48.65;24.48;;;8.30;96.40;;;;;;5033428;28;20079;-88
2020/12/13 06:52:36;;;;;;;45.45;22.08;;;8.30;96.40;;;;;;5027291;28;20022;-89
2020/12/13 06:55:11;;;;;;;55.22;24.08;;;8.30;96.40;;;;;;5028059;28;20026;-88
2020/12/13 06:57:37;;;;;;;45.78;22.70;;;8.30;96.40;;;;;;5032714;28;20028;-88
2020/12/13 07:00:08;;;;;;;49.90;23.27;;;8.30;96.50;;;;;;5030170;28;20386;-88
2020/12/13 07:02:57;;;;;;;54.38;24.60;;;8.30;96.40;;;;;;5024832;28;20558;-88
2020/12/13 07:05:42;;;;;;;53.00;25.20;;;8.30;96.40;;;;;;5029510;28;20080;-88
2020/12/13 07:08:12;;;;;;;50.22;24.23;;;8.30;96.40;;;;;;5029549;28;20136;-87
2020/12/13 07:10:44;;;;;;;44.03;22.23;;;8.20;96.40;;;;;;5030560;28;20017;-88
2020/12/13 07:13:14;;;;;;;42.47;23.20;;;8.30;96.50;;;;;;5029421;28;20040;-87
2020/12/13 07:15:50;;;;;;;45.42;23.73;;;8.20;96.40;;;;;;5031005;28;20025;-87
2020/12/13 07:18:18;;;;;;;46.13;23.83;;;8.30;96.50;;;;;;5029108;28;20072;-88
2020/12/13 07:20:45;;;;;;;47.28;22.73;;;8.30;96.50;;;;;;5030188;28;20041;-88
2020/12/13 07:23:12;;;;;;;43.80;23.48;;;8.30;96.40;;;;;;5031295;28;20018;-89
2020/12/13 07:25:37;;;;;;;39.90;21.10;;;8.20;96.40;;;;;;5025965;28;20092;-89
2020/12/13 07:28:03;;;;;;;40.08;21.85;;;8.30;96.40;;;;;;5030015;28;20029;-89
2020/12/13 07:30:29;;;;;;;37.13;20.85;;;8.30;96.40;;;;;;5030849;28;20486;-88
2020/12/13 07:32:56;;;;;;;37.83;21.65;;;8.30;96.40;;;;;;5025020;28;20037;-88
2020/12/13 07:35:23;;;;;;;39.28;20.77;;;8.20;96.40;;;;;;5029763;28;20021;-87
2020/12/13 07:37:51;;;;;;;40.42;22.15;;;8.20;96.40;;;;;;5027844;28;20033;-88
2020/12/13 07:40:17;;;;;;;45.13;23.42;;;8.20;96.40;;;;;;5027525;28;20032;-87
2020/12/13 07:42:53;;;;;;;39.33;21.83;;;8.20;96.40;;;;;;5031927;28;20029;-86
2020/12/13 07:45:19;;;;;;;35.50;20.38;;;8.30;96.40;;;;;;5030962;28;20516;-88
2020/12/13 07:47:50;;;;;;;40.35;21.00;;;8.20;96.30;;;;;;5032203;28;20029;-88
2020/12/13 07:50:15;;;;;;;37.33;21.88;;;8.20;96.30;;;;;;5022849;28;20026;-88
2020/12/13 07:52:44;;;;;;;34.58;20.42;;;8.20;96.30;;;;;;5023967;28;20025;-89
2020/12/13 07:55:10;;;;;;;34.70;21.10;;;8.20;96.30;;;;;;5032360;28;20022;-90
2020/12/13 07:57:36;;;;;;;36.22;20.85;;;8.10;96.30;;;;;;5031501;28;20025;-88
2020/12/13 08:00:08;;;;;;;32.20;20.48;;;8.20;96.30;;;;;;5029872;28;20040;-89
2020/12/13 08:02:34;;;;;;;34.67;20.92;;;8.20;96.30;;;;;;5031678;28;20018;-88
2020/12/13 08:05:00;;;;;;;33.78;20.10;;;8.20;96.30;;;;;;5029853;28;20037;-89
2020/12/13 08:07:25;;;;;;;33.05;20.83;;;8.10;96.30;;;;;;5031667;28;20056;-88
2020/12/13 08:09:57;;;;;;;33.83;20.55;;;8.10;96.30;;;;;;5031147;28;20067;-89
2020/12/13 08:12:30;;;;;;;34.35;20.65;;;8.10;96.30;;;;;;5035113;28;20025;-89
2020/12/13 08:14:55;;;;;;;35.28;20.80;;;8.20;96.30;;;;;;5041586;28;20037;-90
2020/12/13 08:17:21;;;;;;;35.38;20.45;;;8.10;96.20;;;;;;5035237;28;20439;-88
2020/12/13 08:19:59;;;;;;;36.33;19.83;;;8.10;96.20;;;;;;5031838;28;20060;-88
2020/12/13 08:22:28;;;;;;;35.47;20.90;;;8.20;96.20;;;;;;5034854;28;20029;-88
2020/12/13 08:24:56;;;;;;;32.97;19.98;;;8.10;96.20;;;;;;5035557;28;20025;-87
2020/12/13 08:27:22;;;;;;;32.42;19.83;;;8.10;96.20;;;;;;5034171;28;20378;-88
2020/12/13 08:29:49;;;;;;;32.72;19.15;;;8.10;96.20;;;;;;5034438;28;20550;-88
2020/12/13 08:32:15;;;;;;;32.58;20.50;;;8.10;96.20;;;;;;5034864;28;20022;-88
2020/12/13 08:34:44;;;;;;;36.28;20.55;;;8.20;96.20;;;;;;5034013;28;20029;-86
2020/12/13 08:37:09;;;;;;;36.75;20.15;;;8.20;96.20;;;;;;5035776;28;20021;-88
2020/12/13 08:39:37;;;;;;;36.60;20.98;;;8.20;96.20;;;;;;5030005;28;20468;-87
2020/12/13 08:42:04;;;;;;;32.67;19.45;;;8.20;96.20;;;;;;5024600;28;20390;-88
2020/12/13 08:44:36;;;;;;;36.47;20.77;;;8.20;96.20;;;;;;5037065;28;20068;-88
2020/12/13 08:47:07;;;;;;;38.60;20.63;;;8.20;96.10;;;;;;5023146;28;20033;-89
2020/12/13 08:49:35;;;;;;;33.70;18.38;;;8.20;96.10;;;;;;5034502;28;20100;-89
2020/12/13 08:52:21;;;;;;;34.30;20.20;;;8.20;96.10;;;;;;5032744;28;20033;-89
2020/12/13 08:54:52;;;;;;;41.40;22.05;;;8.20;96.10;;;;;;5033101;28;20485;-89
2020/12/13 08:57:30;;;;;;;41.13;20.73;;;8.30;96.10;;;;;;5034796;28;20065;-89
2020/12/13 09:00:09;;;;;;;41.40;20.63;;;8.30;96.10;;;;;;5031647;28;20045;-87
2020/12/13 09:02:34;;;;;;;39.20;21.55;;;8.30;96.00;;;;;;5032373;28;20482;-88
2020/12/13 09:05:01;;;;;;;44.47;21.85;;;8.30;96.00;;;;;;5030714;28;20048;-89
2020/12/13 09:07:33;;;;;;;39.92;21.70;;;8.30;96.00;;;;;;5033548;28;20032;-89
2020/12/13 09:10:08;;;;;;;41.92;24.08;;;8.30;96.00;;;;;;5029350;28;20080;-89
2020/12/13 09:12:35;;;;;;;43.20;24.85;;;8.30;95.90;;;;;;5015096;28;20038;-88
2020/12/13 09:15:31;;;;;;;49.33;27.77;;;8.30;95.90;;;;;;5034401;28;20028;-88
2020/12/13 09:17:58;;;;;;;49.63;27.02;;;8.40;95.90;;;;;;5029694;28;20415;-89
2020/12/13 09:20:36;;;;;;;53.40;27.40;;;8.30;95.90;;;;;;5029816;28;20079;-89
2020/12/13 09:23:10;;;;;;;50.05;28.67;;;8.40;95.90;;;;;;5027032;28;20025;-89
2020/12/13 09:25:43;;;;;;;54.00;28.45;;;8.40;95.80;;;;;;5032420;28;20083;-89
2020/12/13 09:28:10;;;;;;;61.13;30.70;;;8.40;95.80;;;;;;5027389;28;20029;-89
2020/12/13 09:30:37;;;;;;;60.63;30.08;;;8.40;95.80;;;;;;5034844;28;20030;-89
2020/12/13 09:33:03;;;;;;;54.30;30.27;;;8.50;95.80;;;;;;5029233;28;20076;-89
2020/12/13 09:35:30;;;;;;;54.80;30.42;;;8.40;95.70;;;;;;5032108;28;20083;-89
2020/12/13 09:37:56;;;;;;;57.25;31.20;;;8.40;95.70;;;;;;5035312;28;20029;-89
2020/12/13 09:40:22;;;;;;;53.60;29.75;;;8.50;95.70;;;;;;5032901;28;20030;-87
2020/12/13 09:42:48;;;;;;;52.08;28.63;;;8.50;95.70;;;;;;5025988;28;20099;-88
2020/12/13 09:45:14;;;;;;;47.40;27.80;;;8.50;95.70;;;;;;5042528;28;20029;-90
2020/12/13 09:47:39;;;;;;;47.65;28.95;;;8.50;95.60;;;;;;5027786;28;20026;-90
2020/12/13 09:50:05;;;;;;;48.30;26.60;;;8.50;95.50;;;;;;5029908;28;20470;-90
2020/12/13 09:52:31;;;;;;;48.92;25.10;;;8.50;95.50;;;;;;5024143;28;20028;-91
2020/12/13 09:54:58;;;;;;;42.47;21.48;;;8.50;95.40;;;;;;5027952;28;20033;-90
2020/12/13 09:57:23;;;;;;;40.88;24.48;;;8.40;95.40;;;;;;5031728;28;20025;-90
2020/12/13 09:59:49;;;;;;;36.03;20.08;;;8.50;95.40;;;;;;5034298;28;20034;-90
2020/12/13 10:02:15;;;;;;;42.08;21.98;;;8.50;95.40;;;;;;5032297;28;20053;-90
2020/12/13 10:04:40;;;;;;;38.05;20.85;;;8.50;95.30;;;;;;5031473;28;20033;-89
2020/12/13 10:09:34;;;;;;;38.85;22.20;;;8.60;95.30;;;;;;5033553;28;20025;-89
2020/12/13 10:12:00;;;;;;;38.78;23.00;;;8.60;95.20;;;;;;5029621;28;20029;-89
2020/12/13 10:14:25;;;;;;;44.92;24.50;;;8.60;95.10;;;;;;5027847;28;20435;-90
2020/12/13 10:16:52;;;;;;;38.22;24.20;;;8.60;95.10;;;;;;5026870;28;20398;-91
2020/12/13 10:19:17;;;;;;;35.28;22.63;;;8.60;95.10;;;;;;5026640;28;20461;-90
2020/12/13 10:21:44;;;;;;;36.60;20.83;;;8.60;95.10;;;;;;5033594;28;20045;-90
2020/12/13 10:24:10;;;;;;;36.70;19.58;;;8.70;95.10;;;;;;5032729;28;20056;-89
2020/12/13 10:26:37;;;;;;;35.22;19.75;;;8.70;94.90;;;;;;5033567;28;20456;-90
2020/12/13 10:29:04;;;;;;;31.42;18.65;;;8.70;94.90;;;;;;5031161;28;20052;-90
2020/12/13 10:31:33;;;;;;;32.20;18.00;;;8.80;94.90;;;;;;5032342;28;20025;-90
2020/12/13 10:33:59;;;;;;;31.48;17.25;;;8.80;94.90;;;;;;5028441;28;20030;-89
2020/12/13 10:36:25;;;;;;;23.20;14.63;;;8.90;94.90;;;;;;5028107;28;20025;-90
2020/12/13 10:38:51;;;;;;;21.58;12.23;;;8.90;94.70;;;;;;5022670;28;20041;-90
2020/12/13 10:41:21;;;;;;;24.27;11.25;;;8.90;94.60;;;;;;5020944;28;20029;-89
2020/12/13 10:43:48;;;;;;;22.92;9.93;;;8.90;94.50;;;;;;5025772;28;20068;-89
2020/12/13 10:46:13;;;;;;;17.85;9.88;;;8.90;94.40;;;;;;5026992;28;20022;-90
2020/12/13 10:48:40;;;;;;;23.98;9.75;;;8.90;94.30;;;;;;5025955;28;20030;-89
2020/12/13 10:51:05;;;;;;;16.25;9.27;;;8.90;94.30;;;;;;5031632;28;20048;-90
2020/12/13 10:53:31;;;;;;;20.52;9.73;;;9.00;94.20;;;;;;5029374;28;20470;-90
2020/12/13 10:55:56;;;;;;;21.13;9.82;;;8.90;93.90;;;;;;5030535;28;20123;-90
2020/12/13 10:58:22;;;;;;;19.10;8.75;;;8.90;94.00;;;;;;5030479;28;20040;-90
2020/12/13 11:00:48;;;;;;;19.55;9.40;;;8.90;93.90;;;;;;5022465;28;20021;-88
2020/12/13 11:03:15;;;;;;;18.67;8.65;;;8.90;93.90;;;;;;5031360;28;20022;-89
2020/12/13 11:05:44;;;;;;;12.43;7.60;;;9.00;94.00;;;;;;5028426;28;20158;-89
2020/12/13 11:08:11;;;;;;;15.70;8.52;;;9.00;93.80;;;;;;5015399;28;20478;-88
2020/12/13 11:10:37;;;;;;;25.58;8.07;;;9.00;93.80;;;;;;5029099;28;20060;-90
2020/12/13 11:13:03;;;;;;;15.10;7.85;;;9.00;93.80;;;;;;5026867;28;20013;-89
2020/12/13 11:15:28;;;;;;;16.52;7.05;;;9.00;93.60;;;;;;5030886;28;20048;-89
2020/12/13 11:17:54;;;;;;;13.40;6.20;;;9.00;93.60;;;;;;5031594;28;20478;-89
2020/12/13 11:20:19;;;;;;;12.93;5.70;;;9.00;93.70;;;;;;5030703;28;20037;-89
2020/12/13 11:22:45;;;;;;;16.33;6.50;;;9.00;93.60;;;;;;5032901;28;20080;-89
2020/12/13 11:25:10;;;;;;;17.88;5.90;;;9.10;93.50;;;;;;5031645;28;20863;-89
2020/12/13 11:27:36;;;;;;;13.75;5.90;;;9.10;93.40;;;;;;5032488;28;20108;-90
2020/12/13 11:30:09;;;;;;;15.45;6.28;;;9.10;93.40;;;;;;5028444;28;20025;-89
2020/12/13 11:32:34;;;;;;;;;;;9.10;93.40;;;;;;5046145;28;20088;-91
2020/12/13 11:35:00;;;;;;;14.27;5.80;;;9.10;93.40;;;;;;5027478;28;19917;-89
2020/12/13 11:37:26;;;;;;;14.63;6.40;;;9.10;93.40;;;;;;5023306;28;20041;-89
2020/12/13 11:39:52;;;;;;;12.43;5.53;;;9.20;93.30;;;;;;5024951;28;20030;-91
2020/12/13 11:42:19;;;;;;;19.50;5.03;;;9.30;93.20;;;;;;5024758;28;20038;-90
2020/12/13 11:44:45;;;;;;;13.98;6.13;;;9.30;93.20;;;;;;5026123;28;20068;-89
2020/12/13 11:47:10;;;;;;;11.57;5.10;;;9.30;93.10;;;;;;5026981;28;20033;-89
2020/12/13 11:49:36;;;;;;;11.32;4.22;;;9.40;93.00;;;;;;5028212;28;20049;-90
2020/12/13 11:52:02;;;;;;;10.93;4.03;;;9.40;92.80;;;;;;5025851;28;20029;-90
2020/12/13 11:54:28;;;;;;;12.57;4.45;;;9.50;92.70;;;;;;5035445;28;20029;-89
2020/12/13 11:56:55;;;;;;;9.60;4.63;;;9.50;92.40;;;;;;5032493;28;20113;-89
2020/12/13 11:59:21;;;;;;;8.00;4.30;;;9.60;92.50;;;;;;5036081;28;20037;-89
2020/12/13 12:01:47;;;;;;;14.02;4.13;;;9.70;92.40;;;;;;5026326;28;20045;-89
2020/12/13 12:04:12;;;;;;;13.30;3.33;;;9.70;92.10;;;;;;5032138;28;20034;-89
2020/12/13 12:06:38;;;;;;;8.68;3.88;;;9.80;91.90;;;;;;5032063;28;20171;-89
2020/12/13 12:09:04;;;;;;;9.45;4.18;;;9.70;91.60;;;;;;5026288;28;20104;-89
2020/12/13 12:11:30;;;;;;;13.10;4.18;;;9.70;91.70;;;;;;5021342;28;20515;-89
2020/12/13 12:13:55;;;;;;;11.20;4.65;;;9.70;91.60;;;;;;5054130;28;20037;-89
2020/12/13 12:16:26;;;;;;;12.00;4.03;;;9.60;91.60;;;;;;5035603;28;20029;-89
2020/12/13 12:18:52;;;;;;;12.05;3.75;;;9.50;91.50;;;;;;5032563;28;20483;-89
2020/12/13 12:21:20;;;;;;;13.38;4.03;;;9.40;91.60;;;;;;5034797;28;20064;-89
2020/12/13 12:23:45;;;;;;;8.50;3.38;;;9.30;91.60;;;;;;5035426;28;20025;-89
2020/12/13 12:26:11;;;;;;;9.55;3.58;;;9.30;91.60;;;;;;5032722;28;20107;-90
2020/12/13 12:28:36;;;;;;;10.93;3.30;;;9.30;91.60;;;;;;5034294;28;20029;-89
2020/12/13 12:31:02;;;;;;;7.85;3.50;;;9.20;91.50;;;;;;5030890;28;20083;-89
2020/12/13 12:33:27;;;;;;;8.13;3.15;;;9.10;91.50;;;;;;5031520;28;20030;-88
2020/12/13 12:35:53;;;;;;;9.75;3.30;;;9.10;91.40;;;;;;5040889;28;20064;-90
2020/12/13 12:38:18;;;;;;;19.67;3.90;;;9.10;91.40;;;;;;5034050;28;20047;-90
2020/12/13 12:40:44;;;;;;;6.65;3.17;;;9.00;91.40;;;;;;5031215;28;20454;-90
2020/12/13 12:43:09;;;;;;;9.57;3.13;;;9.00;91.40;;;;;;5028277;28;20042;-91
2020/12/13 12:45:35;;;;;;;7.60;3.25;;;9.00;91.40;;;;;;5025330;28;20030;-90